Langkawi International Airport
WMKL : now visible

Airfield :











YOU CAN JOIN US ON...

 
LOGIN :

Register | Disclaimer

   EN    FR    IT 

 









Legend :    VFR   Marginal VFR   IFR   Intensive IFR   Very Intensive IFR
Visi :
Ceiling :
>= 8 km
>= 3000ft
5 to 8 km
1000 to 3000 ft
1500m to 5 km
500 to 1000 ft
800 to 1500m
200 to 500 ft
< 800m
< 200 ft
Symbols :   Thunderstorms  Fog  Heavy snow  Heavy precipitations  Wind > 20 kt






- Airport Elevation : 29 ft
- IATA code : LGK


WMKL - Langkawi International

CURRENT METAR :
  • 100900Z VRB04KT 9999 SCT020 32/26 Q1008

EXPIRED METARs :
  • 100800Z VRB07KT 9999 SCT020 33/26 Q1009
  • 100700Z 27005KT 190V350 9999 FEW022 34/26 Q1009

TAF TAF WMKL
Valid from the 10 at 06:00 until the 11 at 06:00 UTC


100500Z 1006/1106 08006KT 9999 FEW022
BECMG 1006/1008 25006KT
BECMG 1010/1012 VRB03KT FEW026



MET'MAP, your aeronautical weather chart ! - Copyright ORBIFLY December 2007 - Disclaimer

ORBIFLY MET'MAP TEAM :

Programming & Development : Alexandra Zaïnal
Concept & original design : Baudouin d'Aumeries
Assistance for programming : Marc-Olivier Méhu
Technical & hardware support : Manuel Goepfert

Contact : metmap@orbifly.com




SOURCES & CREDITS :

   NOAA       Earth
Advisory